sensor_id;sensor_type;location;lat;lon;timestamp;pressure;altitude;pressure_sealevel;temperature;humidity
51083;BME280;37131;42.694;23.350;2022-08-14T00:00:43;94934.47;;;17.22;100.00
51083;BME280;37131;42.694;23.350;2022-08-14T00:03:26;94932.06;;;17.26;100.00
51083;BME280;37131;42.694;23.350;2022-08-14T00:05:53;94925.72;;;17.32;100.00
51083;BME280;37131;42.694;23.350;2022-08-14T00:08:18;94930.44;;;17.35;100.00
51083;BME280;37131;42.694;23.350;2022-08-14T00:10:44;94919.53;;;17.47;100.00
51083;BME280;37131;42.694;23.350;2022-08-14T00:13:10;94922.25;;;17.36;100.00
51083;BME280;37131;42.694;23.350;2022-08-14T00:15:41;94919.72;;;17.21;100.00
51083;BME280;37131;42.694;23.350;2022-08-14T00:18:09;94913.81;;;17.40;100.00
51083;BME280;37131;42.694;23.350;2022-08-14T00:20:38;94904.28;;;17.44;100.00
51083;BME280;37131;42.694;23.350;2022-08-14T00:23:07;94903.00;;;17.36;100.00
51083;BME280;37131;42.694;23.350;2022-08-14T00:25:33;94904.66;;;17.27;100.00
51083;BME280;37131;42.694;23.350;2022-08-14T00:27:58;94908.56;;;17.34;100.00
51083;BME280;37131;42.694;23.350;2022-08-14T00:30:24;94903.56;;;17.33;100.00
51083;BME280;37131;42.694;23.350;2022-08-14T00:32:50;94909.31;;;17.40;100.00
51083;BME280;37131;42.694;23.350;2022-08-14T00:35:15;94914.91;;;17.33;100.00
51083;BME280;37131;42.694;23.350;2022-08-14T00:37:42;94915.69;;;17.34;100.00
51083;BME280;37131;42.694;23.350;2022-08-14T00:40:10;94911.75;;;17.31;100.00
51083;BME280;37131;42.694;23.350;2022-08-14T00:42:36;94912.28;;;17.28;100.00
51083;BME280;37131;42.694;23.350;2022-08-14T00:45:03;94916.19;;;17.36;100.00
51083;BME280;37131;42.694;23.350;2022-08-14T00:47:29;94906.94;;;17.39;100.00
51083;BME280;37131;42.694;23.350;2022-08-14T00:49:55;94907.47;;;17.41;100.00
51083;BME280;37131;42.694;23.350;2022-08-14T00:52:20;94902.34;;;17.54;100.00
51083;BME280;37131;42.694;23.350;2022-08-14T00:54:48;94901.22;;;17.66;100.00
51083;BME280;37131;42.694;23.350;2022-08-14T00:57:20;94896.88;;;17.46;100.00
51083;BME280;37131;42.694;23.350;2022-08-14T00:59:46;94891.63;;;17.46;100.00
51083;BME280;37131;42.694;23.350;2022-08-14T01:02:14;94884.66;;;17.60;100.00
51083;BME280;37131;42.694;23.350;2022-08-14T01:04:40;94884.28;;;17.38;100.00
51083;BME280;37131;42.694;23.350;2022-08-14T01:07:07;94872.50;;;17.30;100.00
51083;BME280;37131;42.694;23.350;2022-08-14T01:09:34;94874.22;;;17.45;100.00
51083;BME280;37131;42.694;23.350;2022-08-14T01:12:02;94871.50;;;17.55;100.00
51083;BME280;37131;42.694;23.350;2022-08-14T01:14:28;94885.50;;;17.50;100.00
51083;BME280;37131;42.694;23.350;2022-08-14T01:16:53;94880.50;;;17.49;100.00
51083;BME280;37131;42.694;23.350;2022-08-14T01:19:19;94868.94;;;17.45;100.00
51083;BME280;37131;42.694;23.350;2022-08-14T01:22:03;94870.25;;;17.47;100.00
51083;BME280;37131;42.694;23.350;2022-08-14T01:24:32;94867.59;;;17.52;100.00
51083;BME280;37131;42.694;23.350;2022-08-14T01:26:58;94871.19;;;17.62;100.00
51083;BME280;37131;42.694;23.350;2022-08-14T01:29:24;94869.41;;;17.52;100.00
51083;BME280;37131;42.694;23.350;2022-08-14T01:31:50;94866.22;;;17.55;100.00
51083;BME280;37131;42.694;23.350;2022-08-14T01:34:19;94867.63;;;17.47;100.00
51083;BME280;37131;42.694;23.350;2022-08-14T01:36:48;94867.47;;;17.33;100.00
51083;BME280;37131;42.694;23.350;2022-08-14T01:39:16;94873.25;;;17.35;100.00
51083;BME280;37131;42.694;23.350;2022-08-14T01:41:47;94871.47;;;17.26;100.00
51083;BME280;37131;42.694;23.350;2022-08-14T01:44:21;94865.22;;;17.16;100.00
51083;BME280;37131;42.694;23.350;2022-08-14T01:46:50;94868.81;;;17.31;100.00
51083;BME280;37131;42.694;23.350;2022-08-14T01:49:19;94863.13;;;17.18;100.00
51083;BME280;37131;42.694;23.350;2022-08-14T01:51:46;94857.66;;;17.05;100.00
51083;BME280;37131;42.694;23.350;2022-08-14T01:54:14;94875.97;;;17.25;100.00
51083;BME280;37131;42.694;23.350;2022-08-14T01:56:43;94869.72;;;17.11;100.00
51083;BME280;37131;42.694;23.350;2022-08-14T01:59:17;94866.88;;;17.02;100.00
51083;BME280;37131;42.694;23.350;2022-08-14T02:01:51;94856.00;;;17.14;100.00
51083;BME280;37131;42.694;23.350;2022-08-14T02:04:21;94854.97;;;17.15;100.00
51083;BME280;37131;42.694;23.350;2022-08-14T02:06:48;94865.69;;;17.24;100.00
51083;BME280;37131;42.694;23.350;2022-08-14T02:09:15;94794.22;;;16.61;100.00
51083;BME280;37131;42.694;23.350;2022-08-14T02:11:40;94860.91;;;16.96;100.00
51083;BME280;37131;42.694;23.350;2022-08-14T02:14:08;94873.31;;;16.91;100.00
51083;BME280;37131;42.694;23.350;2022-08-14T02:16:42;94863.53;;;16.91;100.00
51083;BME280;37131;42.694;23.350;2022-08-14T02:19:11;94861.88;;;17.06;100.00
51083;BME280;37131;42.694;23.350;2022-08-14T02:21:40;94854.78;;;17.35;100.00
51083;BME280;37131;42.694;23.350;2022-08-14T02:24:06;94857.00;;;17.23;100.00
51083;BME280;37131;42.694;23.350;2022-08-14T02:26:34;94852.25;;;17.25;100.00
51083;BME280;37131;42.694;23.350;2022-08-14T02:29:05;94847.88;;;17.10;100.00
51083;BME280;37131;42.694;23.350;2022-08-14T02:31:34;94849.75;;;17.05;100.00
51083;BME280;37131;42.694;23.350;2022-08-14T02:34:06;94854.72;;;17.11;100.00
51083;BME280;37131;42.694;23.350;2022-08-14T02:36:36;94853.28;;;17.29;100.00
51083;BME280;37131;42.694;23.350;2022-08-14T02:39:02;94857.50;;;17.30;100.00
51083;BME280;37131;42.694;23.350;2022-08-14T02:41:29;94847.81;;;17.21;100.00
51083;BME280;37131;42.694;23.350;2022-08-14T02:43:56;94853.19;;;17.40;100.00
51083;BME280;37131;42.694;23.350;2022-08-14T02:46:22;94853.97;;;17.40;100.00
51083;BME280;37131;42.694;23.350;2022-08-14T02:48:47;94852.81;;;17.51;100.00
51083;BME280;37131;42.694;23.350;2022-08-14T02:51:13;94855.69;;;17.55;100.00
51083;BME280;37131;42.694;23.350;2022-08-14T02:53:41;94847.69;;;17.65;100.00
51083;BME280;37131;42.694;23.350;2022-08-14T02:56:09;94851.03;;;17.76;100.00
51083;BME280;37131;42.694;23.350;2022-08-14T02:58:37;94846.94;;;17.60;100.00
51083;BME280;37131;42.694;23.350;2022-08-14T03:01:07;94839.47;;;17.38;100.00
51083;BME280;37131;42.694;23.350;2022-08-14T03:03:34;94855.75;;;17.50;100.00
51083;BME280;37131;42.694;23.350;2022-08-14T03:06:05;94853.50;;;17.62;100.00
51083;BME280;37131;42.694;23.350;2022-08-14T03:08:31;94843.06;;;17.52;100.00
51083;BME280;37131;42.694;23.350;2022-08-14T03:11:01;94847.72;;;17.31;100.00
51083;BME280;37131;42.694;23.350;2022-08-14T03:13:31;94844.50;;;17.39;100.00
51083;BME280;37131;42.694;23.350;2022-08-14T03:16:01;94854.25;;;17.68;100.00
51083;BME280;37131;42.694;23.350;2022-08-14T03:18:27;94854.75;;;17.70;100.00
51083;BME280;37131;42.694;23.350;2022-08-14T03:20:53;94855.88;;;17.64;100.00
51083;BME280;37131;42.694;23.350;2022-08-14T03:23:19;94840.44;;;17.52;100.00
51083;BME280;37131;42.694;23.350;2022-08-14T03:25:45;94810.63;;;17.27;100.00
51083;BME280;37131;42.694;23.350;2022-08-14T03:28:11;94851.84;;;17.71;100.00
51083;BME280;37131;42.694;23.350;2022-08-14T03:30:37;94853.31;;;17.83;100.00
51083;BME280;37131;42.694;23.350;2022-08-14T03:33:03;94855.56;;;17.70;100.00
51083;BME280;37131;42.694;23.350;2022-08-14T03:35:29;94867.03;;;17.56;100.00
51083;BME280;37131;42.694;23.350;2022-08-14T03:38:03;94871.38;;;17.36;100.00
51083;BME280;37131;42.694;23.350;2022-08-14T03:40:28;94868.81;;;17.26;100.00
51083;BME280;37131;42.694;23.350;2022-08-14T03:42:54;94872.78;;;17.28;100.00
51083;BME280;37131;42.694;23.350;2022-08-14T03:45:19;94868.31;;;17.29;100.00
51083;BME280;37131;42.694;23.350;2022-08-14T03:47:45;94872.19;;;17.36;100.00
51083;BME280;37131;42.694;23.350;2022-08-14T03:50:10;94875.47;;;17.23;100.00
51083;BME280;37131;42.694;23.350;2022-08-14T03:52:37;94881.31;;;17.15;100.00
51083;BME280;37131;42.694;23.350;2022-08-14T03:55:06;94873.84;;;17.27;100.00
51083;BME280;37131;42.694;23.350;2022-08-14T03:57:33;94867.84;;;17.16;100.00
51083;BME280;37131;42.694;23.350;2022-08-14T04:00:03;94819.31;;;16.93;100.00
51083;BME280;37131;42.694;23.350;2022-08-14T04:02:31;94873.56;;;17.58;100.00
51083;BME280;37131;42.694;23.350;2022-08-14T04:04:56;94867.44;;;17.68;100.00
51083;BME280;37131;42.694;23.350;2022-08-14T04:07:22;94879.38;;;17.26;100.00
51083;BME280;37131;42.694;23.350;2022-08-14T04:09:48;94880.47;;;17.19;100.00
51083;BME280;37131;42.694;23.350;2022-08-14T04:12:13;94877.84;;;17.19;100.00
51083;BME280;37131;42.694;23.350;2022-08-14T04:14:39;94855.22;;;17.18;100.00
51083;BME280;37131;42.694;23.350;2022-08-14T04:17:04;94867.03;;;17.21;100.00
51083;BME280;37131;42.694;23.350;2022-08-14T04:19:30;94867.56;;;17.23;100.00
51083;BME280;37131;42.694;23.350;2022-08-14T04:21:55;94871.22;;;17.27;100.00
51083;BME280;37131;42.694;23.350;2022-08-14T04:24:20;94870.97;;;17.24;100.00
51083;BME280;37131;42.694;23.350;2022-08-14T04:26:46;94869.72;;;17.16;100.00
51083;BME280;37131;42.694;23.350;2022-08-14T04:29:12;94876.03;;;17.15;100.00
51083;BME280;37131;42.694;23.350;2022-08-14T04:31:38;94856.81;;;17.14;100.00
51083;BME280;37131;42.694;23.350;2022-08-14T04:34:04;94870.84;;;17.39;100.00
51083;BME280;37131;42.694;23.350;2022-08-14T04:36:30;94868.22;;;17.39;100.00
51083;BME280;37131;42.694;23.350;2022-08-14T04:38:57;94866.31;;;17.45;100.00
51083;BME280;37131;42.694;23.350;2022-08-14T04:41:40;94857.81;;;17.53;100.00
51083;BME280;37131;42.694;23.350;2022-08-14T04:44:25;94868.63;;;17.51;100.00
51083;BME280;37131;42.694;23.350;2022-08-14T04:46:50;94860.72;;;17.81;100.00
51083;BME280;37131;42.694;23.350;2022-08-14T04:49:34;94865.19;;;17.80;100.00
51083;BME280;37131;42.694;23.350;2022-08-14T04:52:00;94872.38;;;18.04;100.00
51083;BME280;37131;42.694;23.350;2022-08-14T04:54:28;94871.09;;;18.01;100.00
51083;BME280;37131;42.694;23.350;2022-08-14T04:56:54;94874.13;;;18.14;100.00
51083;BME280;37131;42.694;23.350;2022-08-14T04:59:20;94860.94;;;17.90;100.00
51083;BME280;37131;42.694;23.350;2022-08-14T05:01:46;94878.28;;;18.20;100.00
51083;BME280;37131;42.694;23.350;2022-08-14T05:04:12;94873.69;;;18.31;100.00
51083;BME280;37131;42.694;23.350;2022-08-14T05:06:38;94871.75;;;18.36;100.00
51083;BME280;37131;42.694;23.350;2022-08-14T05:09:04;94865.69;;;18.36;100.00
51083;BME280;37131;42.694;23.350;2022-08-14T05:11:29;94874.06;;;18.43;100.00
51083;BME280;37131;42.694;23.350;2022-08-14T05:13:58;94867.56;;;18.35;100.00
51083;BME280;37131;42.694;23.350;2022-08-14T05:16:25;94867.41;;;18.27;100.00
51083;BME280;37131;42.694;23.350;2022-08-14T05:18:53;94865.38;;;17.89;100.00
51083;BME280;37131;42.694;23.350;2022-08-14T05:21:19;94873.28;;;17.94;100.00
51083;BME280;37131;42.694;23.350;2022-08-14T05:23:46;94876.13;;;17.98;100.00
51083;BME280;37131;42.694;23.350;2022-08-14T05:26:12;94878.19;;;18.06;100.00
51083;BME280;37131;42.694;23.350;2022-08-14T05:28:43;94882.31;;;18.12;100.00
51083;BME280;37131;42.694;23.350;2022-08-14T05:31:12;94881.38;;;18.03;100.00
51083;BME280;37131;42.694;23.350;2022-08-14T05:33:38;94874.97;;;18.09;100.00
51083;BME280;37131;42.694;23.350;2022-08-14T05:36:07;94879.22;;;17.76;100.00
51083;BME280;37131;42.694;23.350;2022-08-14T05:38:39;94868.56;;;17.91;100.00
51083;BME280;37131;42.694;23.350;2022-08-14T05:41:10;94875.91;;;17.65;100.00
51083;BME280;37131;42.694;23.350;2022-08-14T05:43:38;94876.75;;;17.90;100.00
51083;BME280;37131;42.694;23.350;2022-08-14T05:46:05;94865.81;;;18.01;100.00
51083;BME280;37131;42.694;23.350;2022-08-14T05:48:30;94876.63;;;18.29;100.00
51083;BME280;37131;42.694;23.350;2022-08-14T05:50:56;94874.47;;;18.31;100.00
51083;BME280;37131;42.694;23.350;2022-08-14T05:53:23;94874.88;;;18.19;100.00
51083;BME280;37131;42.694;23.350;2022-08-14T05:55:49;94879.66;;;18.36;100.00
51083;BME280;37131;42.694;23.350;2022-08-14T05:58:15;94874.91;;;18.38;99.59
51083;BME280;37131;42.694;23.350;2022-08-14T06:00:43;94871.38;;;18.67;98.01
51083;BME280;37131;42.694;23.350;2022-08-14T06:03:12;94874.06;;;18.43;96.70
51083;BME280;37131;42.694;23.350;2022-08-14T06:05:39;94876.81;;;18.33;98.64
51083;BME280;37131;42.694;23.350;2022-08-14T06:08:16;94882.28;;;18.17;100.00
51083;BME280;37131;42.694;23.350;2022-08-14T06:10:42;94876.69;;;18.43;98.27
51083;BME280;37131;42.694;23.350;2022-08-14T06:13:08;94880.06;;;18.49;98.09
51083;BME280;37131;42.694;23.350;2022-08-14T06:15:33;94886.28;;;18.58;99.42
51083;BME280;37131;42.694;23.350;2022-08-14T06:17:59;94828.47;;;17.89;98.82
51083;BME280;37131;42.694;23.350;2022-08-14T06:20:24;94887.72;;;18.26;100.00
51083;BME280;37131;42.694;23.350;2022-08-14T06:22:50;94893.25;;;18.24;100.00
51083;BME280;37131;42.694;23.350;2022-08-14T06:25:15;94895.63;;;18.26;100.00
51083;BME280;37131;42.694;23.350;2022-08-14T06:27:45;94846.09;;;17.94;100.00
51083;BME280;37131;42.694;23.350;2022-08-14T06:30:14;94886.81;;;18.12;100.00
51083;BME280;37131;42.694;23.350;2022-08-14T06:32:40;94894.84;;;18.01;100.00
51083;BME280;37131;42.694;23.350;2022-08-14T06:35:07;94898.84;;;17.94;100.00
51083;BME280;37131;42.694;23.350;2022-08-14T06:37:50;94903.03;;;18.00;100.00
51083;BME280;37131;42.694;23.350;2022-08-14T06:40:20;94910.84;;;18.10;100.00
51083;BME280;37131;42.694;23.350;2022-08-14T06:42:46;94908.94;;;18.16;100.00
51083;BME280;37131;42.694;23.350;2022-08-14T06:45:12;94907.38;;;18.15;100.00
51083;BME280;37131;42.694;23.350;2022-08-14T06:47:40;94900.50;;;18.14;100.00
51083;BME280;37131;42.694;23.350;2022-08-14T06:50:08;94903.06;;;17.95;100.00
51083;BME280;37131;42.694;23.350;2022-08-14T06:52:34;94902.69;;;17.77;100.00
51083;BME280;37131;42.694;23.350;2022-08-14T06:55:00;94903.41;;;17.83;100.00
51083;BME280;37131;42.694;23.350;2022-08-14T06:57:37;94897.41;;;17.77;100.00
51083;BME280;37131;42.694;23.350;2022-08-14T07:00:16;94894.94;;;17.86;100.00
51083;BME280;37131;42.694;23.350;2022-08-14T07:02:42;94895.47;;;17.88;100.00
51083;BME280;37131;42.694;23.350;2022-08-14T07:05:26;94901.94;;;18.01;100.00
51083;BME280;37131;42.694;23.350;2022-08-14T07:08:35;94907.47;;;17.70;100.00
51083;BME280;37131;42.694;23.350;2022-08-14T07:11:01;94901.84;;;17.82;100.00
51083;BME280;37131;42.694;23.350;2022-08-14T07:13:28;94899.81;;;17.74;100.00
51083;BME280;37131;42.694;23.350;2022-08-14T07:15:55;94903.47;;;17.78;100.00
51083;BME280;37131;42.694;23.350;2022-08-14T07:18:23;94901.03;;;17.86;100.00
51083;BME280;37131;42.694;23.350;2022-08-14T07:20:49;94905.06;;;18.08;100.00
51083;BME280;37131;42.694;23.350;2022-08-14T07:23:15;94902.13;;;18.10;100.00
51083;BME280;37131;42.694;23.350;2022-08-14T07:25:42;94901.53;;;18.42;100.00
51083;BME280;37131;42.694;23.350;2022-08-14T07:28:31;94905.56;;;18.34;100.00
51083;BME280;37131;42.694;23.350;2022-08-14T07:30:57;94905.78;;;18.38;100.00
51083;BME280;37131;42.694;23.350;2022-08-14T07:33:28;94894.28;;;18.29;100.00
51083;BME280;37131;42.694;23.350;2022-08-14T07:35:56;94905.75;;;18.19;100.00
51083;BME280;37131;42.694;23.350;2022-08-14T07:38:22;94898.03;;;18.22;100.00
51083;BME280;37131;42.694;23.350;2022-08-14T07:40:49;94901.75;;;18.46;100.00
51083;BME280;37131;42.694;23.350;2022-08-14T07:43:15;94885.47;;;18.38;100.00
51083;BME280;37131;42.694;23.350;2022-08-14T07:45:41;94897.38;;;18.36;100.00
51083;BME280;37131;42.694;23.350;2022-08-14T07:48:06;94915.38;;;18.29;100.00
51083;BME280;37131;42.694;23.350;2022-08-14T07:50:32;94915.63;;;18.56;100.00
51083;BME280;37131;42.694;23.350;2022-08-14T07:52:58;94914.72;;;18.42;98.99
51083;BME280;37131;42.694;23.350;2022-08-14T07:55:24;94924.25;;;18.38;100.00
51083;BME280;37131;42.694;23.350;2022-08-14T07:57:50;94915.22;;;18.68;98.57
51083;BME280;37131;42.694;23.350;2022-08-14T08:00:21;94917.16;;;18.82;95.03
51083;BME280;37131;42.694;23.350;2022-08-14T08:02:48;94918.31;;;18.51;99.55
51083;BME280;37131;42.694;23.350;2022-08-14T08:05:15;94922.19;;;18.59;92.41
51083;BME280;37131;42.694;23.350;2022-08-14T08:07:42;94900.56;;;18.76;91.31
51083;BME280;37131;42.694;23.350;2022-08-14T08:10:09;94921.63;;;19.24;91.25
51083;BME280;37131;42.694;23.350;2022-08-14T08:13:08;94907.22;;;19.50;89.69
51083;BME280;37131;42.694;23.350;2022-08-14T08:15:42;94913.97;;;19.42;81.23
51083;BME280;37131;42.694;23.350;2022-08-14T08:18:10;94913.34;;;19.64;82.73
51083;BME280;37131;42.694;23.350;2022-08-14T08:20:46;94910.19;;;19.62;83.03
51083;BME280;37131;42.694;23.350;2022-08-14T08:23:13;94906.75;;;19.48;84.07
51083;BME280;37131;42.694;23.350;2022-08-14T08:25:41;94897.81;;;19.43;85.15
51083;BME280;37131;42.694;23.350;2022-08-14T08:28:11;94905.81;;;19.38;83.90
51083;BME280;37131;42.694;23.350;2022-08-14T08:30:42;94901.47;;;19.48;83.74
51083;BME280;37131;42.694;23.350;2022-08-14T08:33:08;94902.78;;;19.12;86.14
51083;BME280;37131;42.694;23.350;2022-08-14T08:35:36;94901.69;;;19.32;88.26
51083;BME280;37131;42.694;23.350;2022-08-14T08:38:09;94885.44;;;18.87;88.11
51083;BME280;37131;42.694;23.350;2022-08-14T08:40:38;94900.34;;;19.16;88.95
51083;BME280;37131;42.694;23.350;2022-08-14T08:43:28;94890.59;;;19.49;88.34
51083;BME280;37131;42.694;23.350;2022-08-14T08:46:00;94905.75;;;19.24;86.87
51083;BME280;37131;42.694;23.350;2022-08-14T08:48:28;94876.34;;;19.31;86.16
51083;BME280;37131;42.694;23.350;2022-08-14T08:51:00;94891.44;;;19.63;85.41
51083;BME280;37131;42.694;23.350;2022-08-14T08:53:34;94899.31;;;19.83;85.03
51083;BME280;37131;42.694;23.350;2022-08-14T08:56:00;94895.97;;;19.77;84.73
51083;BME280;37131;42.694;23.350;2022-08-14T08:58:26;94900.00;;;19.88;84.81
51083;BME280;37131;42.694;23.350;2022-08-14T09:00:55;94883.00;;;20.08;84.42
51083;BME280;37131;42.694;23.350;2022-08-14T09:03:23;94886.91;;;20.39;84.24
51083;BME280;37131;42.694;23.350;2022-08-14T09:08:23;94878.06;;;20.02;84.37
51083;BME280;37131;42.694;23.350;2022-08-14T09:10:50;94862.03;;;20.26;82.13
51083;BME280;37131;42.694;23.350;2022-08-14T09:13:16;94870.44;;;20.00;81.59
51083;BME280;37131;42.694;23.350;2022-08-14T09:15:45;94870.97;;;20.30;83.12
51083;BME280;37131;42.694;23.350;2022-08-14T09:18:13;94872.91;;;20.38;80.53
51083;BME280;37131;42.694;23.350;2022-08-14T09:20:44;94871.91;;;20.62;80.45
51083;BME280;37131;42.694;23.350;2022-08-14T09:23:11;94874.66;;;20.57;79.88
51083;BME280;37131;42.694;23.350;2022-08-14T09:25:38;94866.81;;;20.65;77.86
51083;BME280;37131;42.694;23.350;2022-08-14T09:28:05;94864.72;;;20.62;78.42
51083;BME280;37131;42.694;23.350;2022-08-14T09:30:34;94867.19;;;20.73;78.90
51083;BME280;37131;42.694;23.350;2022-08-14T09:33:14;94869.34;;;20.43;78.21
51083;BME280;37131;42.694;23.350;2022-08-14T09:39:03;94873.88;;;20.42;80.88
51083;BME280;37131;42.694;23.350;2022-08-14T09:41:47;94871.28;;;20.65;79.33
51083;BME280;37131;42.694;23.350;2022-08-14T09:46:55;94877.41;;;20.38;77.41
51083;BME280;37131;42.694;23.350;2022-08-14T09:49:36;94872.03;;;20.29;76.92
51083;BME280;37131;42.694;23.350;2022-08-14T09:52:21;94876.22;;;20.44;77.55
51083;BME280;37131;42.694;23.350;2022-08-14T09:54:48;94873.75;;;20.75;77.97
51083;BME280;37131;42.694;23.350;2022-08-14T09:57:27;94867.09;;;20.64;79.49
51083;BME280;37131;42.694;23.350;2022-08-14T09:59:54;94870.34;;;20.75;76.50
51083;BME280;37131;42.694;23.350;2022-08-14T10:02:29;94864.91;;;20.80;77.42
51083;BME280;37131;42.694;23.350;2022-08-14T10:05:13;94866.13;;;21.10;74.46
51083;BME280;37131;42.694;23.350;2022-08-14T10:07:49;94863.47;;;21.33;75.08
51083;BME280;37131;42.694;23.350;2022-08-14T10:10:36;94867.47;;;21.22;74.38
51083;BME280;37131;42.694;23.350;2022-08-14T10:13:07;94866.66;;;20.98;73.21
51083;BME280;37131;42.694;23.350;2022-08-14T10:15:45;94858.59;;;21.49;73.53
51083;BME280;37131;42.694;23.350;2022-08-14T10:18:15;94864.59;;;21.54;71.57
51083;BME280;37131;42.694;23.350;2022-08-14T10:20:49;94863.97;;;21.58;72.87
51083;BME280;37131;42.694;23.350;2022-08-14T10:23:18;94855.75;;;21.99;70.36
51083;BME280;37131;42.694;23.350;2022-08-14T10:25:49;94855.44;;;22.01;67.48
51083;BME280;37131;42.694;23.350;2022-08-14T10:28:19;94850.72;;;21.89;66.82
51083;BME280;37131;42.694;23.350;2022-08-14T10:30:47;94850.28;;;21.96;69.47
51083;BME280;37131;42.694;23.350;2022-08-14T10:33:28;94849.81;;;22.34;67.05
51083;BME280;37131;42.694;23.350;2022-08-14T10:35:56;94839.84;;;22.08;65.71
51083;BME280;37131;42.694;23.350;2022-08-14T10:38:30;94839.31;;;21.88;65.55
51083;BME280;37131;42.694;23.350;2022-08-14T10:41:09;94842.34;;;22.04;64.01
51083;BME280;37131;42.694;23.350;2022-08-14T10:43:36;94839.94;;;21.85;65.65
51083;BME280;37131;42.694;23.350;2022-08-14T10:46:11;94831.81;;;21.90;68.37
51083;BME280;37131;42.694;23.350;2022-08-14T10:48:37;94819.50;;;21.95;67.13
51083;BME280;37131;42.694;23.350;2022-08-14T10:51:03;94809.38;;;22.37;65.50
51083;BME280;37131;42.694;23.350;2022-08-14T10:53:33;94809.88;;;22.74;64.82
51083;BME280;37131;42.694;23.350;2022-08-14T10:56:03;94810.19;;;22.81;62.34
51083;BME280;37131;42.694;23.350;2022-08-14T10:58:32;94812.38;;;22.79;62.21
51083;BME280;37131;42.694;23.350;2022-08-14T11:00:59;94812.69;;;22.95;61.04
51083;BME280;37131;42.694;23.350;2022-08-14T11:03:40;94807.53;;;22.72;62.59
51083;BME280;37131;42.694;23.350;2022-08-14T11:06:14;94803.91;;;22.59;61.39
51083;BME280;37131;42.694;23.350;2022-08-14T11:08:43;94804.13;;;22.23;60.78
51083;BME280;37131;42.694;23.350;2022-08-14T11:11:08;94802.59;;;22.31;62.73
51083;BME280;37131;42.694;23.350;2022-08-14T11:13:33;94792.13;;;22.25;62.64
51083;BME280;37131;42.694;23.350;2022-08-14T11:16:02;94795.94;;;22.51;64.57
51083;BME280;37131;42.694;23.350;2022-08-14T11:18:29;94792.53;;;22.68;62.36
51083;BME280;37131;42.694;23.350;2022-08-14T11:20:59;94787.06;;;22.73;59.94
51083;BME280;37131;42.694;23.350;2022-08-14T11:23:33;94784.56;;;22.68;59.59
51083;BME280;37131;42.694;23.350;2022-08-14T11:26:00;94784.69;;;22.98;59.92
51083;BME280;37131;42.694;23.350;2022-08-14T11:28:31;94780.47;;;23.23;57.33
51083;BME280;37131;42.694;23.350;2022-08-14T11:30:57;94785.78;;;22.35;62.58
51083;BME280;37131;42.694;23.350;2022-08-14T11:33:25;94779.78;;;22.21;63.63
51083;BME280;37131;42.694;23.350;2022-08-14T11:35:53;94778.91;;;22.87;63.86
51083;BME280;37131;42.694;23.350;2022-08-14T11:38:19;94779.41;;;23.15;60.88
51083;BME280;37131;42.694;23.350;2022-08-14T11:40:45;94794.09;;;23.12;58.20
51083;BME280;37131;42.694;23.350;2022-08-14T11:43:11;94778.75;;;23.01;58.44
51083;BME280;37131;42.694;23.350;2022-08-14T11:45:38;94791.41;;;23.04;58.83
51083;BME280;37131;42.694;23.350;2022-08-14T11:48:17;94787.38;;;23.15;60.05
51083;BME280;37131;42.694;23.350;2022-08-14T11:50:45;94784.41;;;23.17;61.17
51083;BME280;37131;42.694;23.350;2022-08-14T11:53:37;94791.88;;;23.06;60.58
51083;BME280;37131;42.694;23.350;2022-08-14T11:56:05;94792.06;;;22.92;58.38
51083;BME280;37131;42.694;23.350;2022-08-14T11:58:34;94791.59;;;22.81;58.60
51083;BME280;37131;42.694;23.350;2022-08-14T12:01:05;94777.50;;;23.16;59.72
51083;BME280;37131;42.694;23.350;2022-08-14T12:06:05;94773.91;;;23.20;58.62
51083;BME280;37131;42.694;23.350;2022-08-14T12:08:36;94782.50;;;23.17;57.43
51083;BME280;37131;42.694;23.350;2022-08-14T12:11:03;94775.75;;;23.46;57.82
51083;BME280;37131;42.694;23.350;2022-08-14T12:13:29;94777.50;;;23.16;57.03
51083;BME280;37131;42.694;23.350;2022-08-14T12:16:03;94772.81;;;22.77;57.13
51083;BME280;37131;42.694;23.350;2022-08-14T12:18:34;94759.66;;;22.99;56.20
51083;BME280;37131;42.694;23.350;2022-08-14T12:21:20;94768.13;;;23.18;60.04
51083;BME280;37131;42.694;23.350;2022-08-14T12:23:59;94761.84;;;23.32;59.51
51083;BME280;37131;42.694;23.350;2022-08-14T12:26:25;94759.31;;;23.35;57.73
51083;BME280;37131;42.694;23.350;2022-08-14T12:29:13;94757.84;;;23.55;56.81
51083;BME280;37131;42.694;23.350;2022-08-14T12:31:41;94758.59;;;23.64;56.75
51083;BME280;37131;42.694;23.350;2022-08-14T12:34:07;94745.41;;;23.29;61.37
51083;BME280;37131;42.694;23.350;2022-08-14T12:36:36;94737.63;;;23.07;61.68
51083;BME280;37131;42.694;23.350;2022-08-14T12:39:04;94743.13;;;22.93;61.97
51083;BME280;37131;42.694;23.350;2022-08-14T12:41:48;94743.56;;;22.95;61.82
51083;BME280;37131;42.694;23.350;2022-08-14T12:44:16;94744.84;;;23.15;59.34
51083;BME280;37131;42.694;23.350;2022-08-14T12:49:29;94738.41;;;22.99;59.90
51083;BME280;37131;42.694;23.350;2022-08-14T12:51:56;94747.31;;;23.11;60.74
51083;BME280;37131;42.694;23.350;2022-08-14T12:54:22;94749.34;;;23.06;60.89
51083;BME280;37131;42.694;23.350;2022-08-14T12:56:47;94741.25;;;23.11;60.87
51083;BME280;37131;42.694;23.350;2022-08-14T12:59:13;94739.19;;;22.90;63.09
51083;BME280;37131;42.694;23.350;2022-08-14T13:01:39;94729.81;;;22.93;61.58
51083;BME280;37131;42.694;23.350;2022-08-14T13:04:13;94738.59;;;22.67;63.17
51083;BME280;37131;42.694;23.350;2022-08-14T13:06:42;94731.72;;;22.40;67.82